createdAt,value
2023-09-20T00:00:16.994Z,10.06
2023-09-20T00:01:17.097Z,10.14
2023-09-20T00:02:17.026Z,10.10
2023-09-20T00:03:17.092Z,10.02
2023-09-20T00:04:17.034Z,10.06
2023-09-20T00:05:17.013Z,10.01
2023-09-20T00:06:16.922Z,10.06
2023-09-20T00:07:16.917Z,9.99
2023-09-20T00:08:16.926Z,10.09
2023-09-20T00:09:16.902Z,10.02
2023-09-20T00:10:16.904Z,10.06
2023-09-20T00:11:17.003Z,10.09
2023-09-20T00:12:16.981Z,10.10
2023-09-20T00:13:16.849Z,10.04
2023-09-20T00:14:16.841Z,10.06
2023-09-20T00:15:16.831Z,9.96
2023-09-20T00:16:16.907Z,9.99
2023-09-20T00:17:16.836Z,10.13
2023-09-20T00:18:16.812Z,10.10
2023-09-20T00:19:16.777Z,9.96
2023-09-20T00:20:16.887Z,10.04
2023-09-20T00:21:16.761Z,9.98
2023-09-20T00:22:16.749Z,10.01
2023-09-20T00:23:16.773Z,9.98
2023-09-20T00:24:16.725Z,9.89
2023-09-20T00:25:16.712Z,9.96
2023-09-20T00:26:16.756Z,9.92
2023-09-20T00:27:16.701Z,10.01
2023-09-20T00:28:16.683Z,9.93
2023-09-20T00:29:16.746Z,9.80
2023-09-20T00:30:16.667Z,9.93
2023-09-20T00:31:16.697Z,9.85
2023-09-20T00:32:16.657Z,9.98
2023-09-20T00:33:16.720Z,9.93
2023-09-20T00:34:16.630Z,9.88
2023-09-20T00:35:16.636Z,9.86
2023-09-20T00:36:16.617Z,9.98
2023-09-20T00:37:16.587Z,9.85
2023-09-20T00:38:16.649Z,9.89
2023-09-20T00:39:16.581Z,9.86
2023-09-20T00:40:16.551Z,9.95
2023-09-20T00:41:16.640Z,9.98
2023-09-20T00:42:16.532Z,9.96
2023-09-20T00:43:16.518Z,9.92
2023-09-20T00:44:16.610Z,10.04
2023-09-20T00:45:16.499Z,9.98
2023-09-20T00:46:16.591Z,9.96
2023-09-20T00:47:16.523Z,10.06
2023-09-20T00:48:16.496Z,10.06
2023-09-20T00:49:16.454Z,9.95
2023-09-20T00:50:16.485Z,10.01
2023-09-20T00:51:16.433Z,9.99
2023-09-20T00:52:16.447Z,9.99
2023-09-20T00:53:16.451Z,10.01
2023-09-20T00:54:16.431Z,9.98
2023-09-20T00:55:16.395Z,9.93
2023-09-20T00:56:16.429Z,9.91
2023-09-20T00:57:16.369Z,9.92
2023-09-20T00:58:16.359Z,10.04
2023-09-20T00:59:16.420Z,9.95
2023-09-20T01:00:16.332Z,10.04
2023-09-20T01:01:16.349Z,9.99
2023-09-20T01:02:16.416Z,9.99
2023-09-20T01:03:16.465Z,10.07
2023-09-20T01:04:16.356Z,10.02
2023-09-20T01:05:16.303Z,10.06
2023-09-20T01:06:16.285Z,10.02
2023-09-20T01:07:16.260Z,9.96
2023-09-20T01:08:16.317Z,9.98
2023-09-20T01:09:16.239Z,9.80
2023-09-20T01:10:16.222Z,9.70
2023-09-20T01:11:16.251Z,9.71
2023-09-20T01:12:16.204Z,9.71
2023-09-20T01:13:16.198Z,9.59
2023-09-20T01:14:16.224Z,9.55
2023-09-20T01:15:16.177Z,9.58
2023-09-20T01:16:16.161Z,9.50
2023-09-20T01:17:16.249Z,9.55
2023-09-20T01:18:16.312Z,9.62
2023-09-20T01:19:16.127Z,9.74
2023-09-20T01:20:16.158Z,9.77
2023-09-20T01:21:16.191Z,9.83
2023-09-20T01:22:16.126Z,9.70
2023-09-20T01:23:16.192Z,9.81
2023-09-20T01:24:16.107Z,9.73
2023-09-20T01:25:16.068Z,9.81
2023-09-20T01:26:16.096Z,9.73
2023-09-20T01:27:16.044Z,9.80
2023-09-20T01:28:16.039Z,9.85
2023-09-20T01:29:16.093Z,9.75
2023-09-20T01:30:16.015Z,9.63
2023-09-20T01:31:16.044Z,9.70
2023-09-20T01:32:16.133Z,9.58
2023-09-20T01:33:16.061Z,9.49
2023-09-20T01:34:15.972Z,9.50
2023-09-20T01:35:15.991Z,9.37
2023-09-20T01:36:15.946Z,9.40
2023-09-20T01:37:15.942Z,9.49
2023-09-20T01:38:15.965Z,9.48
2023-09-20T01:39:15.915Z,9.55
2023-09-20T01:40:15.933Z,9.60
2023-09-20T01:41:15.945Z,9.68
2023-09-20T01:42:15.881Z,9.63
2023-09-20T01:43:15.873Z,9.65
2023-09-20T01:44:15.922Z,9.52
2023-09-20T01:45:15.869Z,9.50
2023-09-20T01:46:15.855Z,9.38
2023-09-20T01:47:15.940Z,9.49
2023-09-20T01:48:15.890Z,9.34
2023-09-20T01:49:15.842Z,9.22
2023-09-20T01:50:15.859Z,9.41
2023-09-20T01:51:15.787Z,9.35
2023-09-20T01:52:15.769Z,9.38
2023-09-20T01:53:15.794Z,9.45
2023-09-20T01:54:15.764Z,9.65
2023-09-20T01:55:15.740Z,9.67
2023-09-20T01:56:15.803Z,9.83
2023-09-20T01:57:15.726Z,9.81
2023-09-20T01:58:15.704Z,9.73
2023-09-20T01:59:15.713Z,9.77
2023-09-20T02:00:15.791Z,9.67
2023-09-20T02:01:15.681Z,9.78
2023-09-20T02:02:15.715Z,9.62
2023-09-20T02:03:16.285Z,9.70
2023-09-20T02:04:15.672Z,9.60
2023-09-20T02:05:15.673Z,9.70
2023-09-20T02:06:15.635Z,9.70
2023-09-20T02:07:15.607Z,9.77
2023-09-20T02:08:15.639Z,9.52
2023-09-20T02:09:15.593Z,9.59
2023-09-20T02:10:15.579Z,9.56
2023-09-20T02:11:15.602Z,9.53
2023-09-20T02:12:15.592Z,9.63
2023-09-20T02:13:15.552Z,9.48
2023-09-20T02:14:15.582Z,9.56
2023-09-20T02:15:15.530Z,9.67
2023-09-20T02:16:15.541Z,9.62
2023-09-20T02:17:15.560Z,9.68
2023-09-20T02:18:15.559Z,9.67
2023-09-20T02:19:15.480Z,9.55
2023-09-20T02:20:15.510Z,9.59
2023-09-20T02:21:15.472Z,9.58
2023-09-20T02:22:15.449Z,9.63
2023-09-20T02:23:15.720Z,9.70
2023-09-20T02:24:15.440Z,9.60
2023-09-20T02:25:15.420Z,9.80
2023-09-20T02:26:15.418Z,9.78
2023-09-20T02:27:15.399Z,9.67
2023-09-20T02:28:15.422Z,9.71
2023-09-20T02:29:15.407Z,9.62
2023-09-20T02:30:15.360Z,9.59
2023-09-20T02:31:15.443Z,9.65
2023-09-20T02:32:15.406Z,9.50
2023-09-20T02:33:15.452Z,9.71
2023-09-20T02:34:15.318Z,9.77
2023-09-20T02:35:15.337Z,9.60
2023-09-20T02:36:15.295Z,9.62
2023-09-20T02:37:15.284Z,9.63
2023-09-20T02:38:15.341Z,9.65
2023-09-20T02:39:15.300Z,9.62
2023-09-20T02:40:15.256Z,9.60
2023-09-20T02:41:15.337Z,9.55
2023-09-20T02:42:15.236Z,9.56
2023-09-20T02:43:15.220Z,9.55
2023-09-20T02:44:15.267Z,9.52
2023-09-20T02:45:15.204Z,9.59
2023-09-20T02:46:15.232Z,9.65
2023-09-20T02:47:15.212Z,9.53
2023-09-20T02:48:15.214Z,9.42
2023-09-20T02:49:15.150Z,9.48
2023-09-20T02:50:15.276Z,9.53
2023-09-20T02:51:15.160Z,9.55
2023-09-20T02:52:15.121Z,9.62
2023-09-20T02:53:15.246Z,9.55
2023-09-20T02:54:15.096Z,9.53
2023-09-20T02:55:15.095Z,9.56
2023-09-20T02:56:15.131Z,9.58
2023-09-20T02:57:15.068Z,9.56
2023-09-20T02:58:15.077Z,9.48
2023-09-20T02:59:15.063Z,9.65
2023-09-20T03:00:15.059Z,9.55
2023-09-20T03:01:15.033Z,9.53
2023-09-20T03:02:15.095Z,9.41
2023-09-20T03:03:15.262Z,9.55
2023-09-20T03:04:15.101Z,9.52
2023-09-20T03:05:15.038Z,9.53
2023-09-20T03:06:14.968Z,9.56
2023-09-20T03:07:14.955Z,9.45
2023-09-20T03:08:14.994Z,9.49
2023-09-20T03:09:14.949Z,9.55
2023-09-20T03:10:14.934Z,9.48
2023-09-20T03:11:14.924Z,9.56
2023-09-20T03:12:14.899Z,9.53
2023-09-20T03:13:14.902Z,9.52
2023-09-20T03:14:15.048Z,9.59
2023-09-20T03:15:14.866Z,9.60
2023-09-20T03:16:14.913Z,9.65
2023-09-20T03:17:14.873Z,9.60
2023-09-20T03:18:15.004Z,9.52
2023-09-20T03:19:15.732Z,9.68
2023-09-20T03:20:14.940Z,9.59
2023-09-20T03:21:14.950Z,9.52
2023-09-20T03:22:14.805Z,9.67
2023-09-20T03:23:14.840Z,9.53
2023-09-20T03:24:14.770Z,9.60
2023-09-20T03:25:14.754Z,9.55
2023-09-20T03:26:14.775Z,9.62
2023-09-20T03:27:14.754Z,9.55
2023-09-20T03:28:14.731Z,9.48
2023-09-20T03:29:14.742Z,9.59
2023-09-20T03:30:14.715Z,9.63
2023-09-20T03:31:14.725Z,9.62
2023-09-20T03:32:14.811Z,9.63
2023-09-20T03:33:14.741Z,9.81
2023-09-20T03:34:14.651Z,9.65
2023-09-20T03:35:14.702Z,9.71
2023-09-20T03:36:14.635Z,9.68
2023-09-20T03:37:14.635Z,9.59
2023-09-20T03:38:14.659Z,9.58
2023-09-20T03:39:15.611Z,9.81
2023-09-20T03:40:14.584Z,9.63
2023-09-20T03:41:14.632Z,9.75
2023-09-20T03:42:14.584Z,9.52
2023-09-20T03:43:14.563Z,9.63
2023-09-20T03:44:14.612Z,9.62
2023-09-20T03:45:14.544Z,9.67
2023-09-20T03:46:14.619Z,9.74
2023-09-20T03:47:14.561Z,9.62
2023-09-20T03:48:14.564Z,9.70
2023-09-20T03:49:14.501Z,9.80
2023-09-20T03:50:14.546Z,9.88
2023-09-20T03:51:14.510Z,9.91
2023-09-20T03:52:14.455Z,9.68
2023-09-20T03:53:17.575Z,9.78
2023-09-20T03:54:14.437Z,9.62
2023-09-20T03:55:14.425Z,9.63
2023-09-20T03:56:14.540Z,9.68
2023-09-20T03:57:14.405Z,9.68
2023-09-20T03:58:14.415Z,9.65
2023-09-20T03:59:14.410Z,9.74
2023-09-20T04:00:14.371Z,9.65
2023-09-20T04:01:14.414Z,9.60
2023-09-20T04:02:14.407Z,9.63
2023-09-20T04:03:14.449Z,9.68
2023-09-20T04:04:14.436Z,9.55
2023-09-20T04:05:16.086Z,9.59
2023-09-20T04:06:15.378Z,9.63
2023-09-20T04:07:14.292Z,9.50
2023-09-20T04:08:14.314Z,9.49
2023-09-20T04:09:14.278Z,9.56
2023-09-20T04:10:14.278Z,9.49
2023-09-20T04:11:14.446Z,9.50
2023-09-20T04:12:14.240Z,9.49
2023-09-20T04:13:14.332Z,9.52
2023-09-20T04:14:14.275Z,9.50
2023-09-20T04:15:15.800Z,9.50
2023-09-20T04:16:14.231Z,9.55
2023-09-20T04:17:14.292Z,9.41
2023-09-20T04:18:14.634Z,9.48
2023-09-20T04:19:14.179Z,9.49
2023-09-20T04:20:14.209Z,9.53
2023-09-20T04:21:14.145Z,9.52
2023-09-20T04:22:14.137Z,9.56
2023-09-20T04:23:14.171Z,9.62
2023-09-20T04:24:14.120Z,9.50
2023-09-20T04:25:14.120Z,9.55
2023-09-20T04:26:14.139Z,9.55
2023-09-20T04:27:14.077Z,9.52
2023-09-20T04:28:14.071Z,9.77
2023-09-20T04:29:14.117Z,9.75
2023-09-20T04:30:14.046Z,9.62
2023-09-20T04:31:14.071Z,9.60
2023-09-20T04:32:14.060Z,9.63
2023-09-20T04:33:14.068Z,9.71
2023-09-20T04:34:14.021Z,9.62
2023-09-20T04:35:14.043Z,9.77
2023-09-20T04:36:14.018Z,9.63
2023-09-20T04:37:13.995Z,9.70
2023-09-20T04:38:14.005Z,9.77
2023-09-20T04:39:13.945Z,9.63
2023-09-20T04:40:13.944Z,9.73
2023-09-20T04:41:13.966Z,9.63
2023-09-20T04:42:13.914Z,9.65
2023-09-20T04:43:13.905Z,9.77
2023-09-20T04:44:13.920Z,9.67
2023-09-20T04:45:14.179Z,9.67
2023-09-20T04:46:13.926Z,9.74
2023-09-20T04:47:13.952Z,9.70
2023-09-20T04:48:13.920Z,9.78
2023-09-20T04:49:13.835Z,9.83
2023-09-20T04:50:13.899Z,9.75
2023-09-20T04:51:13.817Z,9.85
2023-09-20T04:52:13.838Z,9.88
2023-09-20T04:53:13.837Z,9.96
2023-09-20T04:54:13.782Z,9.85
2023-09-20T04:55:13.804Z,9.98
2023-09-20T04:56:13.795Z,10.01
2023-09-20T04:57:13.758Z,9.86
2023-09-20T04:58:13.747Z,9.95
2023-09-20T04:59:13.830Z,9.89
2023-09-20T05:00:13.719Z,9.93
2023-09-20T05:01:13.742Z,9.99
2023-09-20T05:02:13.775Z,10.01
2023-09-20T05:03:13.827Z,10.02
2023-09-20T05:04:13.733Z,10.01
2023-09-20T05:05:13.741Z,9.92
2023-09-20T05:06:13.648Z,9.99
2023-09-20T05:07:13.662Z,10.04
2023-09-20T05:08:13.691Z,9.99
2023-09-20T05:09:13.619Z,9.99
2023-09-20T05:10:13.613Z,10.01
2023-09-20T05:11:13.628Z,10.01
2023-09-20T05:12:13.769Z,10.02
2023-09-20T05:13:13.576Z,9.89
2023-09-20T05:14:13.609Z,9.99
2023-09-20T05:15:13.555Z,9.91
2023-09-20T05:16:13.622Z,9.89
2023-09-20T05:17:13.539Z,9.86
2023-09-20T05:18:13.626Z,9.89
2023-09-20T05:19:13.517Z,9.89
2023-09-20T05:20:13.535Z,9.88
2023-09-20T05:21:13.492Z,9.81
2023-09-20T05:22:13.510Z,9.80
2023-09-20T05:23:13.508Z,9.65
2023-09-20T05:24:13.492Z,9.73
2023-09-20T05:25:13.444Z,9.75
2023-09-20T05:26:13.490Z,9.73
2023-09-20T05:27:13.423Z,9.89
2023-09-20T05:28:13.415Z,9.95
2023-09-20T05:29:13.437Z,9.77
2023-09-20T05:30:13.387Z,9.77
2023-09-20T05:31:13.433Z,9.85
2023-09-20T05:32:13.387Z,9.65
2023-09-20T05:33:13.404Z,9.80
2023-09-20T05:34:13.343Z,9.89
2023-09-20T05:35:13.397Z,9.95
2023-09-20T05:36:13.320Z,9.85
2023-09-20T05:37:13.317Z,9.75
2023-09-20T05:38:13.333Z,9.86
2023-09-20T05:39:13.385Z,9.81
2023-09-20T05:40:13.317Z,9.77
2023-09-20T05:41:13.299Z,9.86
2023-09-20T05:42:13.359Z,9.86
2023-09-20T05:43:13.264Z,9.93
2023-09-20T05:44:13.255Z,9.89
2023-09-20T05:45:13.285Z,10.04
2023-09-20T05:46:13.220Z,9.99
2023-09-20T05:47:13.233Z,10.01
2023-09-20T05:48:13.253Z,10.04
2023-09-20T05:49:13.198Z,10.10
2023-09-20T05:50:13.204Z,10.13
2023-09-20T05:51:13.179Z,10.17
2023-09-20T05:52:13.148Z,10.20
2023-09-20T05:53:13.334Z,10.32
2023-09-20T05:54:13.129Z,10.31
2023-09-20T05:55:13.134Z,10.24
2023-09-20T05:56:13.169Z,10.36
2023-09-20T05:57:13.097Z,10.28
2023-09-20T05:58:13.085Z,10.31
2023-09-20T05:59:13.133Z,10.42
2023-09-20T06:00:13.062Z,10.55
2023-09-20T06:01:13.100Z,10.60
2023-09-20T06:02:13.066Z,10.66
2023-09-20T06:03:13.249Z,10.57
2023-09-20T06:04:13.145Z,10.57
2023-09-20T06:05:13.072Z,10.55
2023-09-20T06:06:13.004Z,10.46
2023-09-20T06:07:13.539Z,10.54
2023-09-20T06:08:13.181Z,10.49
2023-09-20T06:09:12.967Z,10.54
2023-09-20T06:10:12.967Z,10.52
2023-09-20T06:11:12.989Z,10.66
2023-09-20T06:12:12.967Z,10.54
2023-09-20T06:13:12.953Z,10.55
2023-09-20T06:14:12.938Z,10.55
2023-09-20T06:15:12.899Z,10.49
2023-09-20T06:16:13.016Z,10.65
2023-09-20T06:17:12.909Z,10.72
2023-09-20T06:18:12.895Z,10.88
2023-09-20T06:19:14.766Z,11.26
2023-09-20T06:20:12.869Z,11.84
2023-09-20T06:21:12.838Z,12.43
2023-09-20T06:22:12.823Z,12.56
2023-09-20T06:23:12.851Z,12.81
2023-09-20T06:24:12.938Z,12.99
2023-09-20T06:25:12.818Z,13.21
2023-09-20T06:26:12.834Z,13.54
2023-09-20T06:27:12.765Z,13.86
2023-09-20T06:28:12.782Z,14.20
2023-09-20T06:29:12.764Z,14.67
2023-09-20T06:30:12.738Z,14.72
2023-09-20T06:31:12.732Z,14.79
2023-09-20T06:32:12.718Z,14.71
2023-09-20T06:33:12.874Z,14.93
2023-09-20T06:34:12.706Z,15.01
2023-09-20T06:35:12.823Z,15.09
2023-09-20T06:36:12.677Z,15.11
2023-09-20T06:37:12.658Z,15.01
2023-09-20T06:38:12.697Z,15.27
2023-09-20T06:39:12.648Z,15.67
2023-09-20T06:40:12.618Z,15.55
2023-09-20T06:41:12.639Z,15.67
2023-09-20T06:42:12.610Z,15.95
2023-09-20T06:43:12.588Z,15.78
2023-09-20T06:44:12.626Z,15.96
2023-09-20T06:45:12.566Z,16.18
2023-09-20T06:46:12.652Z,16.17
2023-09-20T06:47:12.580Z,16.32
2023-09-20T06:48:12.610Z,15.84
2023-09-20T06:49:12.528Z,16.04
2023-09-20T06:50:12.547Z,16.27
2023-09-20T06:51:12.511Z,15.96
2023-09-20T06:52:12.504Z,15.53
2023-09-20T06:53:12.568Z,15.66
2023-09-20T06:54:12.469Z,15.55
2023-09-20T06:55:12.461Z,15.48
2023-09-20T06:56:12.464Z,15.74
2023-09-20T06:57:12.440Z,15.88
2023-09-20T06:58:20.031Z,15.93
2023-09-20T06:59:13.476Z,15.80
2023-09-20T07:00:12.427Z,15.78
2023-09-20T07:01:12.421Z,15.84
2023-09-20T07:02:12.396Z,15.92
2023-09-20T07:03:12.404Z,15.76
2023-09-20T07:04:12.386Z,15.99
2023-09-20T07:05:12.413Z,15.81
2023-09-20T07:06:12.348Z,15.96
2023-09-20T07:07:12.331Z,15.77
2023-09-20T07:08:12.355Z,15.76
2023-09-20T07:09:12.309Z,15.25
2023-09-20T07:10:12.303Z,15.58
2023-09-20T07:11:12.332Z,15.85
2023-09-20T07:12:12.292Z,15.99
2023-09-20T07:13:12.428Z,15.76
2023-09-20T07:14:12.290Z,15.92
2023-09-20T07:15:12.236Z,16.06
2023-09-20T07:16:12.329Z,15.76
2023-09-20T07:17:12.255Z,16.27
2023-09-20T07:18:12.268Z,16.52
2023-09-20T07:19:12.211Z,16.40
2023-09-20T07:20:12.199Z,16.29
2023-09-20T07:21:12.188Z,16.03
2023-09-20T07:22:12.160Z,16.03
2023-09-20T07:23:12.217Z,15.81
2023-09-20T07:24:12.141Z,15.77
2023-09-20T07:25:12.140Z,15.95
2023-09-20T07:26:12.137Z,15.85
2023-09-20T07:27:12.111Z,15.73
2023-09-20T07:28:12.116Z,16.01
2023-09-20T07:29:12.121Z,15.98
2023-09-20T07:30:12.795Z,16.41
2023-09-20T07:31:12.116Z,16.67
2023-09-20T07:32:12.148Z,16.72
2023-09-20T07:33:12.950Z,16.52
2023-09-20T07:34:12.081Z,16.62
2023-09-20T07:35:12.031Z,16.78
2023-09-20T07:36:14.711Z,16.63
2023-09-20T07:37:12.061Z,16.45
2023-09-20T07:38:12.024Z,16.62
2023-09-20T07:39:12.080Z,16.47
2023-09-20T07:40:11.985Z,16.17
2023-09-20T07:41:12.281Z,16.37
2023-09-20T07:42:11.969Z,16.70
2023-09-20T07:43:22.870Z,16.81
2023-09-20T07:44:12.929Z,16.77
2023-09-20T07:45:11.910Z,17.28
2023-09-20T07:46:11.947Z,17.22
2023-09-20T07:47:11.938Z,17.15
2023-09-20T07:48:11.968Z,17.06
2023-09-20T07:49:11.880Z,17.27
2023-09-20T07:50:11.881Z,17.35
2023-09-20T07:51:14.545Z,17.36
2023-09-20T07:52:11.848Z,17.18
2023-09-20T07:53:11.854Z,17.43
2023-09-20T07:54:11.852Z,17.22
2023-09-20T07:55:11.801Z,17.21
2023-09-20T07:56:11.878Z,17.25
2023-09-20T07:57:11.777Z,17.22
2023-09-20T07:58:11.782Z,17.45
2023-09-20T07:59:11.766Z,17.66
2023-09-20T08:00:11.765Z,17.65
2023-09-20T08:01:11.750Z,17.73
2023-09-20T08:02:11.817Z,17.79
2023-09-20T08:03:11.836Z,18.04
2023-09-20T08:04:11.802Z,17.98
2023-09-20T08:05:11.716Z,18.11
2023-09-20T08:06:11.683Z,17.77
2023-09-20T08:07:11.682Z,17.81
2023-09-20T08:08:11.757Z,17.65
2023-09-20T08:09:11.650Z,17.53
2023-09-20T08:10:11.649Z,17.05
2023-09-20T08:11:14.007Z,17.03
2023-09-20T08:12:11.616Z,16.82
2023-09-20T08:13:11.612Z,17.14
2023-09-20T08:14:11.617Z,17.40
2023-09-20T08:15:11.587Z,17.49
2023-09-20T08:16:11.750Z,17.68
2023-09-20T08:17:11.595Z,17.66
2023-09-20T08:18:11.767Z,18.01
2023-09-20T08:19:11.598Z,17.95
2023-09-20T08:20:11.583Z,17.91
2023-09-20T08:21:11.521Z,17.94
2023-09-20T08:22:11.499Z,17.89
2023-09-20T08:23:11.504Z,17.99
2023-09-20T08:24:11.494Z,18.13
2023-09-20T08:25:11.569Z,18.34
2023-09-20T08:26:11.466Z,18.31
2023-09-20T08:27:11.452Z,18.50
2023-09-20T08:28:11.431Z,18.56
2023-09-20T08:29:11.436Z,18.59
2023-09-20T08:30:11.418Z,18.71
2023-09-20T08:31:11.514Z,18.82
2023-09-20T08:32:11.491Z,18.94
2023-09-20T08:33:11.441Z,18.96
2023-09-20T08:34:11.373Z,18.94
2023-09-20T08:35:11.433Z,19.23
2023-09-20T08:36:11.372Z,19.50
2023-09-20T08:37:11.342Z,19.61
2023-09-20T08:38:11.339Z,19.32
2023-09-20T08:39:20.282Z,19.31
2023-09-20T08:40:12.296Z,19.46
2023-09-20T08:41:11.357Z,19.78
2023-09-20T08:42:11.281Z,19.76
2023-09-20T08:43:11.269Z,19.82
2023-09-20T08:44:11.312Z,19.60
2023-09-20T08:45:11.250Z,19.86
2023-09-20T08:46:11.301Z,20.33
2023-09-20T08:47:11.268Z,20.44
2023-09-20T08:48:11.325Z,20.01
2023-09-20T08:49:11.204Z,19.62
2023-09-20T08:50:11.246Z,19.25
2023-09-20T08:51:11.192Z,19.39
2023-09-20T08:52:11.302Z,19.49
2023-09-20T08:53:11.196Z,19.90
2023-09-20T08:54:11.188Z,19.92
2023-09-20T08:55:11.133Z,19.94
2023-09-20T08:56:11.150Z,20.37
2023-09-20T08:57:11.111Z,20.58
2023-09-20T08:58:11.124Z,20.31
2023-09-20T08:59:11.119Z,20.33
2023-09-20T09:00:11.085Z,20.40
2023-09-20T09:01:11.079Z,20.27
2023-09-20T09:02:11.091Z,20.30
2023-09-20T09:03:11.287Z,20.38
2023-09-20T09:04:11.186Z,20.54
2023-09-20T09:05:11.036Z,20.25
2023-09-20T09:06:11.021Z,20.34
2023-09-20T09:07:11.017Z,20.42
2023-09-20T09:08:11.051Z,19.98
2023-09-20T09:09:12.428Z,19.98
2023-09-20T09:10:10.974Z,19.71
2023-09-20T09:11:11.013Z,19.32
2023-09-20T09:12:10.995Z,19.35
2023-09-20T09:13:10.960Z,19.70
2023-09-20T09:14:10.943Z,20.07
2023-09-20T09:15:10.930Z,20.56
2023-09-20T09:16:10.978Z,19.70
2023-09-20T09:17:10.937Z,18.87
2023-09-20T09:18:11.787Z,18.41
2023-09-20T09:19:10.893Z,18.42
2023-09-20T09:20:10.897Z,18.32
2023-09-20T09:21:10.850Z,18.46
2023-09-20T09:22:10.838Z,19.23
2023-09-20T09:23:10.830Z,19.80
2023-09-20T09:24:10.842Z,20.10
2023-09-20T09:25:10.827Z,19.85
2023-09-20T09:26:10.830Z,19.87
2023-09-20T09:27:10.791Z,19.87
2023-09-20T09:28:10.776Z,19.97
2023-09-20T09:29:10.994Z,19.42
2023-09-20T09:30:10.762Z,19.47
2023-09-20T09:31:10.770Z,19.61
2023-09-20T09:32:10.845Z,19.65
2023-09-20T09:33:10.848Z,19.50
2023-09-20T09:34:10.743Z,19.17
2023-09-20T09:35:10.741Z,19.23
2023-09-20T09:36:10.734Z,18.86
2023-09-20T09:37:10.673Z,18.44
2023-09-20T09:38:10.709Z,18.23
2023-09-20T09:39:17.265Z,18.13
2023-09-20T09:40:11.767Z,18.19
2023-09-20T09:41:10.667Z,18.01
2023-09-20T09:42:10.618Z,17.83
2023-09-20T09:43:10.605Z,18.44
2023-09-20T09:44:10.668Z,18.62
2023-09-20T09:45:10.596Z,18.79
2023-09-20T09:46:10.673Z,18.94
2023-09-20T09:47:10.588Z,19.24
2023-09-20T09:48:10.634Z,19.07
2023-09-20T09:49:10.538Z,19.25
2023-09-20T09:50:10.627Z,18.91
2023-09-20T09:51:10.542Z,18.82
2023-09-20T09:52:10.505Z,18.59
2023-09-20T09:53:10.716Z,18.11
2023-09-20T09:54:12.090Z,18.14
2023-09-20T09:55:10.475Z,17.84
2023-09-20T09:56:10.831Z,17.77
2023-09-20T09:57:10.454Z,17.87
2023-09-20T09:58:10.466Z,17.80
2023-09-20T09:59:10.462Z,17.92
2023-09-20T10:00:10.423Z,17.99
2023-09-20T10:01:10.431Z,18.05
2023-09-20T10:02:10.432Z,18.07
2023-09-20T10:03:10.493Z,18.57
2023-09-20T10:04:10.526Z,18.64
2023-09-20T10:05:10.400Z,18.86
2023-09-20T10:06:10.376Z,18.74
2023-09-20T10:07:10.341Z,18.96
2023-09-20T10:08:12.175Z,18.93
2023-09-20T10:09:10.335Z,18.94
2023-09-20T10:10:10.396Z,19.13
2023-09-20T10:11:10.409Z,19.07
2023-09-20T10:12:10.319Z,19.01
2023-09-20T10:13:10.292Z,18.82
2023-09-20T10:14:10.290Z,18.90
2023-09-20T10:15:10.256Z,18.79
2023-09-20T10:16:10.290Z,18.59
2023-09-20T10:17:10.297Z,18.44
2023-09-20T10:18:10.345Z,18.28
2023-09-20T10:19:10.212Z,17.98
2023-09-20T10:20:10.243Z,17.80
2023-09-20T10:21:10.188Z,17.86
2023-09-20T10:22:10.176Z,17.84
2023-09-20T10:23:10.206Z,17.87
2023-09-20T10:24:10.244Z,17.79
2023-09-20T10:25:10.153Z,17.65
2023-09-20T10:26:10.166Z,17.63
2023-09-20T10:27:11.640Z,17.42
2023-09-20T10:28:10.260Z,17.54
2023-09-20T10:29:10.133Z,17.27
2023-09-20T10:30:10.119Z,17.40
2023-09-20T10:31:10.088Z,17.54
2023-09-20T10:32:10.104Z,17.55
2023-09-20T10:33:10.156Z,17.46
2023-09-20T10:34:10.131Z,17.57
2023-09-20T10:35:10.089Z,17.65
2023-09-20T10:36:10.072Z,17.68
2023-09-20T10:37:10.036Z,17.62
2023-09-20T10:38:10.150Z,17.73
2023-09-20T10:39:10.000Z,17.65
2023-09-20T10:40:09.988Z,17.55
2023-09-20T10:41:10.001Z,17.77
2023-09-20T10:42:09.969Z,17.84
2023-09-20T10:43:09.963Z,17.94
2023-09-20T10:44:10.004Z,18.25
2023-09-20T10:45:09.926Z,18.29
2023-09-20T10:46:10.115Z,18.79
2023-09-20T10:47:10.004Z,18.84
2023-09-20T10:48:10.013Z,18.87
2023-09-20T10:49:09.884Z,19.17
2023-09-20T10:50:10.013Z,19.13
2023-09-20T10:51:09.880Z,19.30
2023-09-20T10:52:09.845Z,19.28
2023-09-20T10:53:09.852Z,19.46
2023-09-20T10:54:09.827Z,19.64
2023-09-20T10:55:09.822Z,20.07
2023-09-20T10:56:09.813Z,20.12
2023-09-20T10:57:09.805Z,19.70
2023-09-20T10:58:09.811Z,19.95
2023-09-20T10:59:09.786Z,20.20
2023-09-20T11:00:09.822Z,20.33
2023-09-20T11:01:09.846Z,20.12
2023-09-20T11:02:09.801Z,19.75
2023-09-20T11:03:09.868Z,19.53
2023-09-20T11:04:09.719Z,19.55
2023-09-20T11:05:09.788Z,19.70
2023-09-20T11:06:09.885Z,20.17
2023-09-20T11:07:09.700Z,20.61
2023-09-20T11:08:09.736Z,20.98
2023-09-20T11:09:09.665Z,21.12
2023-09-20T11:10:09.655Z,20.96
2023-09-20T11:11:09.646Z,20.96
2023-09-20T11:12:09.763Z,21.03
2023-09-20T11:13:09.623Z,20.63
2023-09-20T11:14:09.626Z,20.63
2023-09-20T11:15:09.673Z,20.61
2023-09-20T11:16:09.607Z,20.26
2023-09-20T11:17:09.593Z,20.20
2023-09-20T11:18:09.657Z,20.37
2023-09-20T11:19:09.567Z,20.33
2023-09-20T11:20:09.600Z,20.26
2023-09-20T11:21:09.548Z,20.33
2023-09-20T11:22:09.529Z,20.50
2023-09-20T11:23:09.537Z,20.53
2023-09-20T11:24:09.567Z,20.41
2023-09-20T11:25:09.511Z,20.30
2023-09-20T11:26:09.498Z,20.31
2023-09-20T11:27:09.546Z,20.61
2023-09-20T11:28:09.517Z,20.60
2023-09-20T11:29:09.511Z,20.57
2023-09-20T11:30:09.533Z,21.00
2023-09-20T11:31:09.483Z,20.79
2023-09-20T11:32:09.435Z,20.38
2023-09-20T11:33:09.673Z,20.37
2023-09-20T11:34:09.434Z,20.31
2023-09-20T11:35:09.481Z,19.95
2023-09-20T11:36:09.374Z,20.02
2023-09-20T11:37:09.358Z,20.16
2023-09-20T11:38:09.347Z,20.17
2023-09-20T11:39:09.336Z,20.23
2023-09-20T11:40:09.329Z,20.30
2023-09-20T11:41:09.332Z,20.40
2023-09-20T11:42:09.310Z,20.87
2023-09-20T11:43:09.297Z,21.21
2023-09-20T11:44:09.274Z,21.45
2023-09-20T11:45:29.309Z,21.22
2023-09-20T11:46:10.528Z,20.91
2023-09-20T11:47:09.465Z,20.33
2023-09-20T11:48:09.313Z,20.33
2023-09-20T11:49:09.238Z,20.40
2023-09-20T11:50:09.216Z,20.37
2023-09-20T11:51:09.198Z,20.57
2023-09-20T11:52:09.184Z,20.96
2023-09-20T11:53:09.253Z,21.00
2023-09-20T11:54:09.174Z,20.88
2023-09-20T11:55:09.154Z,20.63
2023-09-20T11:56:09.163Z,20.30
2023-09-20T11:57:09.228Z,20.68
2023-09-20T11:58:09.119Z,20.97
2023-09-20T11:59:09.218Z,21.19
2023-09-20T12:00:09.098Z,20.94
2023-09-20T12:01:09.142Z,21.08
2023-09-20T12:02:09.080Z,21.06
2023-09-20T12:03:09.386Z,20.53
2023-09-20T12:04:09.108Z,20.33
2023-09-20T12:05:09.055Z,20.23
2023-09-20T12:06:09.060Z,20.08
2023-09-20T12:07:09.034Z,19.67
2023-09-20T12:08:09.030Z,19.32
2023-09-20T12:09:09.001Z,19.40
2023-09-20T12:10:08.991Z,19.34
2023-09-20T12:11:08.995Z,19.55
2023-09-20T12:12:08.965Z,19.53
2023-09-20T12:13:08.974Z,19.55
2023-09-20T12:14:08.970Z,19.43
2023-09-20T12:15:08.936Z,19.62
2023-09-20T12:16:08.926Z,19.58
2023-09-20T12:17:08.933Z,19.72
2023-09-20T12:18:09.106Z,19.67
2023-09-20T12:19:09.018Z,19.67
2023-09-20T12:20:08.917Z,19.67
2023-09-20T12:21:08.870Z,19.60
2023-09-20T12:22:08.865Z,19.62
2023-09-20T12:23:08.842Z,19.64
2023-09-20T12:24:08.838Z,19.65
2023-09-20T12:25:08.847Z,19.64
2023-09-20T12:26:08.828Z,19.64
2023-09-20T12:27:08.808Z,19.68
2023-09-20T12:28:08.825Z,19.92
2023-09-20T12:29:08.782Z,19.94
2023-09-20T12:30:08.774Z,20.41
2023-09-20T12:31:08.814Z,20.58
2023-09-20T12:32:08.763Z,20.58
2023-09-20T12:33:08.840Z,20.97
2023-09-20T12:34:08.732Z,20.82
2023-09-20T12:35:08.714Z,21.06
2023-09-20T12:36:08.729Z,21.05
2023-09-20T12:37:08.715Z,20.82
2023-09-20T12:38:08.697Z,20.40
2023-09-20T12:39:08.678Z,20.31
2023-09-20T12:40:08.659Z,20.42
2023-09-20T12:41:08.652Z,20.20
2023-09-20T12:42:08.634Z,19.92
2023-09-20T12:43:08.651Z,19.98
2023-09-20T12:44:08.613Z,20.02
2023-09-20T12:45:08.622Z,20.01
2023-09-20T12:46:08.629Z,19.64
2023-09-20T12:47:08.585Z,19.55
2023-09-20T12:48:08.643Z,19.65
2023-09-20T12:49:08.572Z,19.46
2023-09-20T12:50:08.572Z,19.31
2023-09-20T12:51:08.557Z,19.42
2023-09-20T12:52:08.552Z,19.49
2023-09-20T12:53:08.623Z,19.46
2023-09-20T12:54:08.507Z,19.53
2023-09-20T12:55:08.491Z,19.31
2023-09-20T12:56:08.485Z,19.46
2023-09-20T12:57:08.478Z,19.39
2023-09-20T12:58:08.459Z,19.27
2023-09-20T12:59:08.458Z,19.27
2023-09-20T13:00:08.438Z,19.39
2023-09-20T13:01:08.513Z,19.49
2023-09-20T13:02:08.420Z,19.28